Tiempo atmosférico en la estación meteorológica de Fonfría, Teruel (1262 m.)

Fecha
DESCASC
Temp. máxima en grados centígrados (hora)
DESCASC
Temp. mínima en grados centígrados (hora)
DESCASC
Temp. media en grados centígrados
DESCASC
Racha de viento máxima en m/sg (hora)
DESCASC
Velocidad máxima media en intervalos de 10 minutos(hora)
DESCASC
Precipitaciones diarias en mm
DESCASC
Precipitaciones de 00:00 a 06:00 en mm
DESCASC
Precipitaciones de 06:00 a 12:00 en mm
DESCASC
Precipitaciones de 12:00 a 18:00 en mm
DESCASC
Precipitaciones de 18:00 a 24:00 en mm
DESCASC
17-09-2017 20.4 (15:10) 4.1 (05:40) 12.2 11.11 (14:00) 5.56 (07:30) 0 0 0 0 0
16-09-2017 14.3 (16:50) 2.5 (07:50) 8.4 9.44 (16:40) 6.11 (15:50) 0 0 0 0 0
15-09-2017 10.1 (17:30) 5.6 (23:30) 7.9 9.72 (21:10) 6.11 (20:50) 0 0 0 0 0
14-09-2017 20.3 (10:50) 7.9 (00:00) 14.1 10.83 (11:00) 7.22 (11:00) 0 0 0 0 0
13-09-2017 27.4 (16:30) 12 (00:00) 19.7 9.17 (19:10) 5.83 (19:10) 0 0 0 0 0
12-09-2017 18.7 (17:00) 8.8 (00:00) 13.8 9.17 (18:00) 6.11 (16:50) 0 0 0 0 0
11-09-2017 22.9 (15:00) 10.9 (00:00) 16.9 15.83 (07:00) 10.28 (15:10) 0 0 0 0 0
10-09-2017 16 (17:30) 6 (00:00) 11 13.33 (13:10) 10.28 (09:30) 0 0 0 0 0
09-09-2017 17 (01:40) 6.9 (00:00) 12 11.11 (17:20) 7.5 (12:30) 1.2 0 0 0 1.2
08-09-2017 26.6 (16:00) 10 (00:00) 18.3 8.89 (14:00) 6.39 (10:20) 0 0 0 0 0
07-09-2017 22.6 (15:20) 6.6 (00:00) 14.6 -- (--) -- (--) -- 0 -- 0 0
06-09-2017 22.2 (15:40) 11.1 (00:00) 16.7 8.06 (16:10) 5.28 (14:40) 0 0 0 0 0
05-09-2017 27.2 (17:10) 13.2 (00:00) 20.2 7.22 (04:40) 5.83 (04:10) 0 0 0 0 0
04-09-2017 22.2 (16:20) 14.3 (00:00) 18.3 10.56 (10:10) 7.5 (10:00) 0 0 0 0 0
03-09-2017 24.9 (18:00) 12.7 (00:00) 18.8 10.28 (16:50) 7.22 (12:30) 0 0 0 0 0
02-09-2017 19.8 (18:00) 6.4 (00:00) 13.1 8.89 (00:10) 6.39 (01:00) 0 0 0 0 0
01-09-2017 18.6 (15:20) 9.3 (00:00) 14 10 (21:40) 5.56 (21:40) 0 0 0 0 0
31-08-2017 20.1 (14:50) 10.7 (00:00) 15.4 7.5 (02:10) 5 (02:20) 0 0 0 0 0
30-08-2017 23.7 (16:00) 12.9 (00:00) 18.3 12.78 (04:10) 9.44 (04:10) 0.2 0.2 0 0 0
29-08-2017 21.9 (13:00) 12.1 (00:00) 17 15.28 (17:50) 8.61 (17:50) 2 0 2 0 0
28-08-2017 26.8 (13:20) 12.5 (00:00) 19.6 13.89 (15:20) 7.5 (22:10) 13.1 0 0 9.7 3.4
27-08-2017 26.1 (13:20) 15.3 (00:00) 20.7 13.33 (14:30) 8.61 (14:50) 5.2 1.8 0.8 1.4 1.2
26-08-2017 32 (14:10) 15.8 (00:00) 23.9 11.67 (21:10) 7.22 (21:10) 12.6 0 0 9.8 2.8
25-08-2017 32.9 (16:10) 17.9 (00:00) 25.4 14.44 (21:10) 9.44 (21:20) 3 0 0 2.8 0.2
24-08-2017 32 (14:30) 16.1 (00:00) 24.1 10.83 (09:00) 8.89 (09:00) 0 0 0 0 0
23-08-2017 28.6 (16:40) 16.3 (00:00) 22.4 10.83 (18:10) 7.22 (18:00) 12.6 0 0 12.6 0
22-08-2017 32.5 (15:10) 18.1 (00:00) 25.3 9.44 (05:00) 8.06 (05:00) 0.8 0 0 0 0.8

Gráficas

Temp. máximas Temp. mínimas Temp. medias Precipitaciones Rachas de viento máximas Velocidades máximas media en intervalos de 10 minutos

Datos horarios

Fecha y hora oficial Temperatura (ºC) Velocidad del viento (km/h) Dirección del viento Racha (km/h) Dirección de racha Precipitación (mm) Presión (hPa) Tendencia (hPa) Humedad (%)
2017-09-20 23:00:00 13 3 Este 8 Este 0 -- -- 38
2017-09-20 22:00:00 12.8 4 Sudeste 14 Sudoeste 0 -- -- 38
2017-09-20 21:00:00 13.8 9 Sur 12 Sudeste 0 -- -- 37
2017-09-20 20:00:00 16.6 8 Sudeste 18 Este 0 -- -- 29
2017-09-20 19:00:00 19.4 9 Este 16 Este 0 -- -- 24
2017-09-20 18:00:00 22.2 4 Noroeste 20 Noroeste 0 -- -- 21
2017-09-20 17:00:00 21.9 8 Norte 24 Noroeste 0 -- -- 21
2017-09-20 16:00:00 21.8 12 Noroeste 26 Noroeste 0 -- -- 21
2017-09-20 15:00:00 21.6 14 Noroeste 23 Noroeste 0 -- -- 23
2017-09-20 14:00:00 20.7 9 Norte 18 Noroeste 0 -- -- 22
2017-09-20 13:00:00 19.9 6 Norte 15 Noroeste 0 -- -- 19
2017-09-20 12:00:00 18.4 8 Noroeste 14 Noroeste 0 -- -- 13
2017-09-20 11:00:00 16.4 8 Noroeste 14 Noroeste 0 -- -- 27
2017-09-20 10:00:00 13.7 3 Nordeste 7 Norte 0 -- -- 48
2017-09-20 09:00:00 10.5 2 Oeste 5 Noroeste 0 -- -- 57
2017-09-20 08:00:00 7.6 0 Calma 5 Oeste 0 -- -- 58
2017-09-20 07:00:00 6.9 3 Sudoeste 8 Sur 0 -- -- 69
2017-09-20 06:00:00 7 3 Sudoeste 8 Noroeste 0 -- -- 62
2017-09-20 05:00:00 8.2 5 Noroeste 10 Oeste 0 -- -- 58
2017-09-20 04:00:00 7.9 7 Oeste 12 Sudoeste 0 -- -- 55
2017-09-20 03:00:00 8.4 4 Noroeste 11 Oeste 0 -- -- 45
2017-09-20 02:00:00 9.4 11 Oeste 18 Noroeste 0 -- -- 40
2017-09-20 01:00:00 8.6 10 Oeste 15 Noroeste 0 -- -- 48
2017-09-20 00:00:00 8.8 8 Noroeste 17 Noroeste 0 -- -- 54
2017-09-19 23:00:00 9.6 14 Noroeste 23 Noroeste 0 -- -- 61
2017-09-19 22:00:00 9.6 11 Noroeste 15 Oeste 0 -- -- 64
2017-09-19 21:00:00 9.7 8 Oeste 15 Noroeste 0 -- -- 65
2017-09-19 20:00:00 11.9 12 Noroeste 18 Noroeste 0 -- -- 57
2017-09-19 19:00:00 14.2 13 Norte 26 Norte 0 -- -- 49
2017-09-19 18:00:00 16.5 17 Norte 32 Noroeste 0 -- -- 45
2017-09-19 17:00:00 17.3 19 Noroeste 35 Noroeste 0 -- -- 42
2017-09-19 16:00:00 17.2 20 Noroeste 32 Noroeste 0 -- -- 40
2017-09-19 15:00:00 17.1 19 Noroeste 36 Noroeste 0 -- -- 43
2017-09-19 14:00:00 15.8 18 Noroeste 33 Noroeste 0 -- -- 48
2017-09-19 13:00:00 14.9 21 Noroeste 30 Noroeste 0 -- -- 54
2017-09-19 12:00:00 13.2 18 Noroeste 29 Norte 0 -- -- 63
2017-09-19 11:00:00 11.9 15 Noroeste 22 Norte 0 -- -- 68
2017-09-19 10:00:00 9.6 13 Noroeste 18 Noroeste 0 -- -- 80
2017-09-19 09:00:00 7.9 11 Noroeste 22 Noroeste 0 -- -- 93
2017-09-19 08:00:00 8.4 8 Norte 17 Norte 0 -- -- 95
2017-09-19 07:00:00 8.6 12 Norte 18 Norte 0 -- -- 96
2017-09-19 06:00:00 8.9 11 Noroeste 16 Noroeste 0 -- -- 94
2017-09-19 05:00:00 8.8 10 Norte 15 Norte 0 -- -- 93
2017-09-19 04:00:00 9.7 8 Noroeste 14 Noroeste 0 -- -- 88
2017-09-19 03:00:00 9.3 9 Oeste 18 Oeste 0 -- -- 91
2017-09-19 02:00:00 8.7 4 Sur 13 Norte 0 -- -- 94
2017-09-19 01:00:00 8.9 7 Norte 20 Norte 0 -- -- 94
2017-09-19 00:00:00 8.9 12 Norte 20 Noroeste 0 -- -- 93
2017-09-18 23:00:00 9.3 9 Noroeste 16 Norte 0 -- -- 89
2017-09-18 22:00:00 10.1 8 Oeste 17 Noroeste 0 -- -- 84
2017-09-18 21:00:00 10.7 10 Noroeste 15 Noroeste 0 -- -- 81
2017-09-18 20:00:00 12.5 12 Norte 22 Norte 0 -- -- 73
2017-09-18 19:00:00 14.6 16 Norte 25 Norte 0 -- -- 63
2017-09-18 18:00:00 16.1 13 Norte 26 Norte 0 -- -- 55
2017-09-18 17:00:00 16.4 15 Norte 32 Noroeste 0 -- -- 51
2017-09-18 16:00:00 16.5 21 Noroeste 38 Noroeste 0 -- -- 47
2017-09-18 15:00:00 16.3 19 Noroeste 33 Norte 0 -- -- 49
2017-09-18 14:00:00 16.7 18 Noroeste 33 Noroeste 0 -- -- 47
2017-09-18 13:00:00 15.5 24 Noroeste 38 Noroeste 0 -- -- 51
2017-09-18 12:00:00 14.6 25 Noroeste 35 Noroeste 0 -- -- 52
2017-09-18 11:00:00 13.9 21 Noroeste 33 Noroeste 0 -- -- 53
2017-09-18 10:00:00 12.3 15 Noroeste 27 Noroeste 0 -- -- 51
2017-09-18 09:00:00 10.6 5 Norte 15 Noroeste 0 -- -- 54
2017-09-18 08:00:00 9.3 8 Noroeste 20 Oeste 0 -- -- 55
2017-09-18 07:00:00 9.6 2 Noroeste 6 Norte 0 -- -- 54
2017-09-18 06:00:00 9.8 4 Noroeste 9 Oeste 0 -- -- 55
2017-09-18 05:00:00 8.5 2 Oeste 17 Sudoeste 0 -- -- 60
2017-09-18 04:00:00 8.2 12 Sudoeste 18 Sudoeste 0 -- -- 61
2017-09-18 03:00:00 9 8 Sudoeste 18 Sudoeste 0 -- -- 59
2017-09-18 02:00:00 8.9 15 Sudoeste 18 Sudoeste 0 -- -- 61
2017-09-18 01:00:00 9.7 6 Oeste 13 Sudoeste 0 -- -- 58
2017-09-18 00:00:00 9.8 3 Sudeste 6 Sur 0 -- -- 60
2017-09-17 23:00:00 9.1 5 Sur 10 Sudoeste 0 -- -- 61
2017-09-17 22:00:00 9.7 5 Sur 7 Sur 0 -- -- 60
2017-09-17 21:00:00 11 4 Sur 7 Sur 0 -- -- 56
2017-09-17 20:00:00 12.8 5 Sur 16 Sudeste 0 -- -- 51
2017-09-17 19:00:00 15.4 8 Sudeste 14 Este 0 -- -- 45
2017-09-17 18:00:00 17 8 Nordeste 18 Nordeste 0 -- -- 41
2017-09-17 17:00:00 17.6 12 Nordeste 27 Oeste 0 -- -- 38
2017-09-17 16:00:00 20.3 15 Oeste 30 Oeste 0 -- -- 27
2017-09-17 15:00:00 20.1 17 Sudoeste 37 Oeste 0 -- -- 28
2017-09-17 14:00:00 19.2 15 Oeste 40 Sudoeste 0 -- -- 29
2017-09-17 13:00:00 17.2 15 Noroeste 32 Sudoeste 0 -- -- 35
2017-09-17 12:00:00 16 17 Oeste 34 Oeste 0 -- -- 34
2017-09-17 11:00:00 14.9 10 Oeste 23 Sudoeste 0 -- -- 39
2017-09-17 10:00:00 12.4 18 Sudoeste 29 Sudoeste 0 -- -- 45
2017-09-17 09:00:00 10.5 17 Sudoeste 24 Sudoeste 0 -- -- 51
2017-09-17 08:00:00 5.2 10 Sudoeste 22 Sudoeste 0 -- -- 68
2017-09-17 07:00:00 5 19 Sudoeste 21 Sudoeste 0 -- -- 73
2017-09-17 06:00:00 4.3 18 Sudoeste 21 Sudoeste 0 -- -- 78
2017-09-17 05:00:00 5 19 Sudoeste 24 Sudoeste 0 -- -- 75
2017-09-17 04:00:00 5.5 18 Sudoeste 23 Sudoeste 0 -- -- 76
2017-09-17 03:00:00 4.8 7 Sudoeste 15 Sur 0 -- -- 77
2017-09-17 02:00:00 4.8 2 Sur 9 Sudoeste 0 -- -- 81
2017-09-17 01:00:00 5 4 Sudoeste 15 Sudoeste 0 -- -- 79
2017-09-17 00:00:00 4.6 4 Sudoeste 9 Oeste 0 -- -- 80
2017-09-16 23:00:00 5.1 6 Oeste 13 Noroeste 0 -- -- 80
2017-09-16 22:00:00 6.4 5 Noroeste 16 Norte 0 -- -- 78
2017-09-16 21:00:00 7.5 12 Norte 21 Norte 0 -- -- 73
2017-09-16 20:00:00 9.6 13 Norte 22 Norte 0 -- -- 59
2017-09-16 19:00:00 11.8 15 Norte 23 Norte 0 -- -- 53
2017-09-16 18:00:00 13.8 10 Norte 29 Noroeste 0 -- -- 39
2017-09-16 17:00:00 14.2 22 Noroeste 34 Noroeste 0 -- -- 36
2017-09-16 16:00:00 13.3 15 Noroeste 33 Noroeste 0 -- -- 43
2017-09-16 15:00:00 12.4 18 Noroeste 31 Noroeste 0 -- -- 46
2017-09-16 14:00:00 12 16 Noroeste 24 Norte 0 -- -- 49
2017-09-16 13:00:00 11.7 17 Noroeste 26 Noroeste 0 -- -- 53
2017-09-16 12:00:00 10.8 10 Norte 20 Noroeste 0 -- -- 58
2017-09-16 11:00:00 9 13 Norte 20 Noroeste 0 -- -- 69
2017-09-16 10:00:00 7.8 9 Noroeste 17 Noroeste 0 -- -- 73
2017-09-16 09:00:00 6.2 4 Noroeste 11 Noroeste 0 -- -- 80
2017-09-16 08:00:00 2.6 6 Oeste 12 Oeste 0 -- -- 91
2017-09-16 07:00:00 2.8 9 Oeste 17 Noroeste 0 -- -- 92
2017-09-16 06:00:00 3.1 10 Oeste 23 Noroeste 0 -- -- 91
2017-09-16 05:00:00 3.8 15 Noroeste 23 Noroeste 0 -- -- 89
2017-09-16 04:00:00 3.3 7 Noroeste 13 Noroeste 0 -- -- 92
2017-09-16 03:00:00 3.9 7 Noroeste 13 Norte 0 -- -- 90
2017-09-16 02:00:00 4.2 3 Norte 17 Noroeste 0 -- -- 89
2017-09-16 01:00:00 4.9 10 Noroeste 17 Noroeste 0 -- -- 90
2017-09-16 00:00:00 5.6 4 Noroeste 23 Norte 0 -- -- 85
2017-09-15 23:00:00 6.2 17 Norte 31 Norte 0 -- -- 80
2017-09-15 22:00:00 7 21 Norte 35 Norte 0 -- -- 77
2017-09-15 21:00:00 8.1 21 Norte 33 Norte 0 -- -- 75
2017-09-15 20:00:00 9 14 Norte 26 Norte 0 -- -- 69
2017-09-15 19:00:00 9.7 14 Norte 27 Norte 0 -- -- 67
2017-09-15 18:00:00 9.7 15 Norte 28 Norte 0 -- -- 70
2017-09-15 17:00:00 9.1 15 Norte 26 Norte 0 -- -- 75
2017-09-15 16:00:00 8.6 13 Norte 23 Norte 0 -- -- 77
2017-09-15 15:00:00 7.2 6 Norte 15 Nordeste 0 -- -- 83
2017-09-15 14:00:00 6.7 10 Nordeste 25 Norte 0 -- -- 84
2017-09-15 13:00:00 6.6 17 Norte 26 Norte 0 -- -- 84
2017-09-15 12:00:00 6.6 17 Norte 25 Norte 0 -- -- 86
2017-09-15 11:00:00 6.2 10 Norte 23 Norte 0 -- -- 89
2017-09-15 10:00:00 6 12 Norte 21 Norte 0 -- -- 91
2017-09-15 09:00:00 6.1 13 Norte 25 Norte 0 -- -- 89
2017-09-15 08:00:00 6.2 16 Norte 24 Norte 0 -- -- 87
2017-09-15 07:00:00 6.8 13 Norte 21 Norte 0 -- -- 80
2017-09-15 06:00:00 7.2 13 Norte 22 Norte 0 -- -- 75
2017-09-15 05:00:00 7.5 13 Noroeste 18 Noroeste 0 -- -- 74
2017-09-15 04:00:00 7.7 12 Noroeste 18 Noroeste 0 -- -- 71
2017-09-15 03:00:00 8 7 Noroeste 12 Noroeste 0 -- -- 76
2017-09-15 02:00:00 8.2 4 Noroeste 12 Noroeste 0 -- -- 81
2017-09-15 01:00:00 8.3 8 Noroeste 17 Noroeste 0 -- -- 79
2017-09-15 00:00:00 8.4 11 Noroeste 18 Norte 0 -- -- 77
2017-09-14 23:00:00 8.2 8 Noroeste 21 Noroeste 0 -- -- 83
2017-09-14 22:00:00 8.2 14 Noroeste 22 Noroeste 0 -- -- 82
2017-09-14 21:00:00 9.3 9 Norte 23 Noroeste 0 -- -- 78
2017-09-14 20:00:00 10.6 18 Norte 32 Norte 0 -- -- 73
2017-09-14 19:00:00 12.6 16 Norte 26 Norte 0 -- -- 68
2017-09-14 18:00:00 15 13 Norte 23 Norte 0 -- -- 65
2017-09-14 17:00:00 17.3 13 Nordeste 24 Norte 0 -- -- 61
2017-09-14 16:00:00 17.5 15 Norte 26 Norte 0 -- -- 61
2017-09-14 15:00:00 17.6 16 Norte 36 Norte 0 -- -- 64
2017-09-14 14:00:00 18.4 21 Norte 31 Noroeste 0 -- -- 65
2017-09-14 13:00:00 18.9 18 Norte 30 Norte 0 -- -- 59
2017-09-14 12:00:00 19.5 22 Noroeste 35 Noroeste 0 -- -- 52
2017-09-14 11:00:00 20.1 26 Noroeste 39 Noroeste 0 -- -- 44
2017-09-14 10:00:00 20.2 14 Noroeste 25 Oeste 0 -- -- 46
2017-09-14 09:00:00 18.6 14 Sudoeste 31 Oeste 0 -- -- 47
2017-09-14 08:00:00 15.2 12 Oeste 28 Oeste 0 -- -- 53
2017-09-14 07:00:00 15.6 14 Oeste 26 Sudoeste 0 -- -- 52
2017-09-14 06:00:00 16.5 21 Sudoeste 29 Oeste 0 -- -- 50
2017-09-14 05:00:00 16.9 22 Sudoeste 28 Oeste 0 -- -- 47
2017-09-14 04:00:00 15.5 18 Sudoeste 23 Sudoeste 0 -- -- 54
2017-09-14 03:00:00 15 19 Sudoeste 22 Sudoeste 0 -- -- 56
2017-09-14 02:00:00 14.8 18 Sudoeste 21 Sudoeste 0 -- -- 56
2017-09-14 01:00:00 15.8 15 Sudoeste 21 Sudoeste 0 -- -- 52
2017-09-14 00:00:00 16.2 15 Sudoeste 20 Sudoeste 0 -- -- 53
2017-09-13 23:00:00 16 15 Sudoeste 18 Sudoeste 0 -- -- 58
2017-09-13 22:00:00 17 9 Sudoeste 14 Sudoeste 0 -- -- 55
2017-09-13 21:00:00 18.1 8 Sur 10 Sur 0 -- -- 52
2017-09-13 20:00:00 21.1 7 Sudeste 33 Nordeste 0 -- -- 45
2017-09-13 19:00:00 25.9 12 Sudoeste 30 Noroeste 0 -- -- 33
2017-09-13 18:00:00 26.8 15 Noroeste 27 Noroeste 0 -- -- 29
2017-09-13 17:00:00 26.9 14 Oeste 27 Oeste 0 -- -- 29
2017-09-13 16:00:00 26.9 13 Oeste 27 Sudoeste 0 -- -- 30
2017-09-13 15:00:00 26.5 13 Oeste 30 Oeste 0 -- -- 31
2017-09-13 14:00:00 25.2 12 Sudoeste 32 Sudoeste 0 -- -- 34
2017-09-13 13:00:00 23.9 13 Sudoeste 27 Sudoeste 0 -- -- 37
2017-09-13 12:00:00 22.7 11 Sudoeste 21 Sudoeste 0 -- -- 41
2017-09-13 11:00:00 21.5 14 Sudoeste 22 Sudoeste 0 -- -- 43
2017-09-13 10:00:00 19.6 10 Oeste 17 Oeste 0 -- -- 48
2017-09-13 09:00:00 17.2 3 Sudeste 12 Oeste 0 -- -- 54
2017-09-13 08:00:00 12.7 5 Oeste 11 Oeste 0 -- -- 65
2017-09-13 07:00:00 12.4 6 Oeste 13 Oeste 0 -- -- 64
2017-09-13 06:00:00 12.4 6 Noroeste 10 Noroeste 0 -- -- 65
2017-09-13 05:00:00 12.4 4 Oeste 19 Sudoeste 0 -- -- 64
2017-09-13 04:00:00 13.2 5 Oeste 15 Oeste 0 -- -- 63
2017-09-13 03:00:00 13.7 4 Noroeste 9 Noroeste 0 -- -- 59
2017-09-13 02:00:00 13.6 3 Noroeste 8 Noroeste 0 -- -- 59
2017-09-13 01:00:00 14.4 6 Noroeste 29 Oeste 0 -- -- 56
2017-09-13 00:00:00 14 18 Sudoeste 26 Oeste 0 -- -- 58
2017-09-12 23:00:00 14.4 16 Sudoeste 24 Oeste 0 -- -- 56
2017-09-12 22:00:00 13.1 14 Sudoeste 17 Sudoeste 0 -- -- 61
2017-09-12 21:00:00 13.1 2 Sudoeste 10 Oeste 0 -- -- 61
2017-09-12 20:00:00 15.5 5 Oeste 15 Norte 0 -- -- 59
2017-09-12 19:00:00 17.5 12 Noroeste 29 Noroeste 0 -- -- 46
2017-09-12 18:00:00 18.7 19 Noroeste 33 Noroeste 0 -- -- 42
2017-09-12 17:00:00 18.7 19 Noroeste 33 Norte 0 -- -- 41
2017-09-12 16:00:00 17.7 16 Noroeste 33 Noroeste 0 -- -- 51
2017-09-12 15:00:00 17.6 17 Noroeste 32 Oeste 0 -- -- 52
2017-09-12 14:00:00 16.2 19 Noroeste 29 Noroeste 0 -- -- 56
2017-09-12 13:00:00 13.8 15 Noroeste 21 Noroeste 0 -- -- 72
2017-09-12 12:00:00 12.8 9 Norte 15 Norte 0 -- -- 79
2017-09-12 11:00:00 10.2 9 Norte 13 Norte 0 -- -- 92
2017-09-12 10:00:00 9.8 2 Nordeste 9 Nordeste 0 -- -- 97
2017-09-12 09:00:00 9.3 6 Nordeste 10 Nordeste 0 -- -- 97
2017-09-12 08:00:00 9.3 7 Nordeste 9 Nordeste 0 -- -- 96
2017-09-12 07:00:00 9.5 5 Nordeste 13 Norte 0 -- -- 95
2017-09-12 06:00:00 9.6 6 Norte 12 Norte 0 -- -- 97
2017-09-12 05:00:00 9.5 6 Norte 12 Norte 0 -- -- 97
2017-09-12 04:00:00 9.4 5 Norte 10 Norte 0 -- -- 97
2017-09-12 03:00:00 9.3 6 Noroeste 11 Noroeste 0 -- -- 96
2017-09-12 02:00:00 9.1 3 Norte 12 Sudeste 0 -- -- 92
2017-09-12 01:00:00 9.8 3 Nordeste 9 Sudoeste 0 -- -- 91
2017-09-12 00:00:00 10.9 0 Calma 9 Sur 0 -- -- 88
2017-09-11 23:00:00 11.5 4 Sudeste 6 Norte 0 -- -- 87
2017-09-11 22:00:00 13.1 6 Norte 12 Nordeste 0 -- -- 83
2017-09-11 21:00:00 14.7 2 Noroeste 12 Noroeste 0 -- -- 76
2017-09-11 20:00:00 17.7 6 Norte 32 Noroeste 0 -- -- 67
2017-09-11 19:00:00 20.7 23 Noroeste 44 Noroeste 0 -- -- 50
2017-09-11 18:00:00 21.9 29 Noroeste 44 Norte 0 -- -- 46
2017-09-11 17:00:00 22.4 31 Noroeste 49 Noroeste 0 -- -- 45
2017-09-11 16:00:00 22.6 32 Noroeste 54 Noroeste 0 -- -- 46
2017-09-11 15:00:00 22.9 31 Noroeste 51 Noroeste 0 -- -- 46
2017-09-11 14:00:00 21.8 32 Noroeste 47 Noroeste 0 -- -- 49
2017-09-11 13:00:00 20.6 29 Noroeste 46 Noroeste 0 -- -- 55
2017-09-11 12:00:00 18.4 32 Noroeste 48 Noroeste 0 -- -- 62
2017-09-11 11:00:00 17.5 34 Noroeste 49 Noroeste 0 -- -- 64
2017-09-11 10:00:00 16.3 26 Oeste 48 Oeste 0 -- -- 65
2017-09-11 09:00:00 14.8 20 Oeste 37 Sudoeste 0 -- -- 60
2017-09-11 08:00:00 12.8 18 Oeste 51 Oeste 0 -- -- 66
2017-09-11 07:00:00 13.6 32 Oeste 57 Oeste 0 -- -- 62
2017-09-11 06:00:00 12.6 19 Noroeste 36 Noroeste 0 -- -- 63
2017-09-11 05:00:00 13.5 22 Noroeste 41 Noroeste 0 -- -- 49
2017-09-11 04:00:00 13.5 22 Noroeste 39 Noroeste 0 -- -- 48
2017-09-11 03:00:00 14.3 17 Oeste 38 Oeste 0 -- -- 46
2017-09-11 02:00:00 14.4 19 Oeste 39 Oeste 0 -- -- 47
2017-09-11 01:00:00 13.4 21 Oeste 37 Oeste 0 -- -- 51
2017-09-11 00:00:00 13.6 19 Oeste 32 Oeste 0 -- -- 51
2017-09-10 23:00:00 11.2 6 Noroeste 13 Noroeste 0 -- -- 68
2017-09-10 22:00:00 10.2 5 Oeste 9 Oeste 0 -- -- 67
2017-09-10 21:00:00 10.9 7 Oeste 15 Noroeste 0 -- -- 63
2017-09-10 20:00:00 12.5 9 Noroeste 26 Norte 0 -- -- 58
2017-09-10 19:00:00 14.4 17 Norte 34 Norte 0 -- -- 53
2017-09-10 18:00:00 15.6 28 Noroeste 43 Noroeste 0 -- -- 49
2017-09-10 17:00:00 15.2 21 Norte 38 Norte 0 -- -- 52
2017-09-10 16:00:00 14.8 22 Norte 38 Noroeste 0 -- -- 58
2017-09-10 15:00:00 14.7 22 Noroeste 41 Noroeste 0 -- -- 55
2017-09-10 14:00:00 12.3 24 Noroeste 48 Noroeste 0 -- -- 63
2017-09-10 13:00:00 12 30 Noroeste 47 Noroeste 0 -- -- 66
2017-09-10 12:00:00 10.4 21 Noroeste 36 Noroeste 0 -- -- 74
2017-09-10 11:00:00 8.6 24 Noroeste 42 Noroeste 0 -- -- 81
2017-09-10 10:00:00 7.8 31 Noroeste 48 Noroeste 0 -- -- 85
2017-09-10 09:00:00 7.6 33 Noroeste 45 Noroeste 0 -- -- 87
2017-09-10 08:00:00 6.7 27 Noroeste 41 Noroeste 0 -- -- 90
2017-09-10 07:00:00 6 24 Noroeste 44 Noroeste 0 -- -- 92
2017-09-10 06:00:00 6 19 Noroeste 31 Oeste 0 -- -- 92
2017-09-10 05:00:00 6.6 16 Noroeste 31 Noroeste 0 -- -- 90
2017-09-10 04:00:00 6.9 18 Norte 39 Noroeste 0 -- -- 88
2017-09-10 03:00:00 7 26 Noroeste 37 Noroeste 0 -- -- 88
2017-09-10 02:00:00 6.9 24 Noroeste 35 Noroeste 0 -- -- 86
2017-09-10 01:00:00 7 19 Norte 35 Noroeste 0 -- -- 90
2017-09-10 00:00:00 7 21 Noroeste 32 Noroeste 0 -- -- 90
2017-09-09 23:00:00 7 14 Noroeste 30 Noroeste 0 -- -- 92
2017-09-09 22:00:00 8.1 23 Norte 37 Noroeste 0 -- -- 90
2017-09-09 21:00:00 9 14 Norte 35 Norte 0.8 -- -- 94
2017-09-09 20:00:00 9.7 17 Norte 34 Norte 0.4 -- -- 89
2017-09-09 19:00:00 11.6 20 Norte 32 Norte 0 -- -- 68
2017-09-09 18:00:00 10.5 17 Norte 40 Norte 0 -- -- 77
2017-09-09 17:00:00 11.7 21 Norte 35 Norte 0 -- -- 71
2017-09-09 16:00:00 12.9 17 Norte 29 Norte 0 -- -- 72
2017-09-09 15:00:00 11.4 18 Norte 29 Norte 0 -- -- 83
2017-09-09 14:00:00 8.8 15 Noroeste 35 Norte 0 -- -- 95
2017-09-09 13:00:00 10.1 21 Norte 37 Norte 0 -- -- 94
2017-09-09 12:00:00 13 17 Noroeste 32 Noroeste 0 -- -- 80
2017-09-09 11:00:00 14 20 Noroeste 31 Noroeste 0 -- -- 62
2017-09-09 10:00:00 13.5 16 Noroeste 23 Noroeste 0 -- -- 62
2017-09-09 09:00:00 12.8 11 Noroeste 19 Noroeste 0 -- -- 60
2017-09-09 08:00:00 13 10 Noroeste 34 Oeste 0 -- -- 48
2017-09-09 07:00:00 15.2 17 Oeste 30 Oeste 0 -- -- 42
2017-09-09 06:00:00 15.5 17 Oeste 27 Oeste 0 -- -- 38
2017-09-09 05:00:00 14.7 19 Sudoeste 24 Sudoeste 0 -- -- 40
2017-09-09 04:00:00 13.9 22 Sudoeste 26 Sudoeste 0 -- -- 41
2017-09-09 03:00:00 13.3 25 Sudoeste 27 Sudoeste 0 -- -- 44
2017-09-09 02:00:00 15.2 21 Sudoeste 22 Sudoeste 0 -- -- 40
2017-09-09 01:00:00 16.5 6 Oeste 10 Oeste 0 -- -- 37
2017-09-09 00:00:00 15.5 5 Sudoeste 20 Sudoeste 0 -- -- 43
2017-09-08 23:00:00 18.4 14 Sudoeste 22 Oeste 0 -- -- 36
2017-09-08 22:00:00 16.4 10 Oeste 15 Oeste 0 -- -- 39
2017-09-08 21:00:00 17.8 4 Sur 13 Sudeste 0 -- -- 43
2017-09-08 20:00:00 22.4 8 Oeste 22 Noroeste 0 -- -- 25
2017-09-08 19:00:00 24.6 10 Oeste 30 Oeste 0 -- -- 23
2017-09-08 18:00:00 24.6 4 Noroeste 27 Norte 0 -- -- 32
2017-09-08 17:00:00 25.1 8 Este 22 Noroeste 0 -- -- 33
2017-09-08 16:00:00 26.6 16 Oeste 30 Noroeste 0 -- -- 24
2017-09-08 15:00:00 25.4 14 Noroeste 30 Noroeste 0 -- -- 25
2017-09-08 14:00:00 24.3 16 Oeste 32 Oeste 0 -- -- 26
2017-09-08 13:00:00 23.7 13 Oeste 29 Oeste 0 -- -- 27
2017-09-08 12:00:00 22.7 15 Sudoeste 26 Sudoeste 0 -- -- 28
2017-09-08 11:00:00 20.7 17 Sudoeste 31 Sudoeste 0 -- -- 32
2017-09-08 10:00:00 17.5 19 Sudoeste 29 Sudoeste 0 -- -- 43
2017-09-08 09:00:00 14.1 0 Calma 4 Nordeste 0 -- -- 53
2017-09-08 08:00:00 11.9 0 Calma 4 Sudoeste 0 -- -- 53
2017-09-08 07:00:00 11.7 0 Calma 7 Noroeste 0 -- -- 55
2017-09-08 06:00:00 10 2 Sudoeste 10 Noroeste 0 -- -- 57
2017-09-08 05:00:00 10.9 0 Calma 6 Noroeste 0 -- -- 54
2017-09-08 04:00:00 11.6 3 Noroeste 6 Noroeste 0 -- -- 50
2017-09-08 03:00:00 11.4 3 Noroeste 19 Noroeste 0 -- -- 49
2017-09-08 02:00:00 13 13 Noroeste 20 Noroeste 0 -- -- 47
2017-09-08 01:00:00 12.5 9 Oeste 14 Oeste 0 -- -- 54
2017-09-08 00:00:00 13 2 Sudoeste 18 Nordeste 0 -- -- 55
2017-09-07 23:00:00 13.3 5 Nordeste 20 Noroeste 0 -- -- 59
2017-09-07 22:00:00 14.2 9 Noroeste 21 Noroeste 0 -- -- 54
2017-09-07 21:00:00 14.7 11 Noroeste 30 Noroeste 0 -- -- 55
2017-09-07 20:00:00 16.5 13 Noroeste 23 Noroeste 0 -- -- 53
2017-09-07 19:00:00 19.2 15 Norte 27 Norte 0 -- -- 42
2017-09-07 18:00:00 21.5 17 Norte 26 Noroeste 0 -- -- 33
2017-09-07 17:00:00 22.2 13 Noroeste 28 Noroeste 0 -- -- 31
2017-09-07 16:00:00 22.6 15 Noroeste 23 Noroeste 0 -- -- 30
2017-09-07 15:00:00 21.6 18 Noroeste 26 Noroeste 0 -- -- 31
2017-09-07 14:00:00 20.9 15 Noroeste 23 Noroeste 0 -- -- 34
2017-09-07 13:00:00 19.6 8 Noroeste 17 Oeste 0 -- -- 41
2017-09-07 12:00:00 17.2 9 Noroeste 19 Noroeste 0 -- -- 50
2017-09-07 11:00:00 15.3 6 Norte -- -- -- -- -- 54
2017-09-07 10:00:00 13.2 5 Norte 14 Norte 0 -- -- 63
2017-09-07 09:00:00 10 3 Noroeste 10 Noroeste 0 -- -- 85
2017-09-07 08:00:00 7 3 Sur 11 Noroeste 0 -- -- 92
2017-09-07 07:00:00 7 3 Oeste 11 Sur 0 -- -- 87
2017-09-07 06:00:00 7.9 2 Norte 8 Sudeste 0 -- -- 84
2017-09-07 05:00:00 9 0 Calma 8 Sur 0 -- -- 77
2017-09-07 04:00:00 10.3 4 Oeste 7 Oeste 0 -- -- 67
2017-09-07 03:00:00 10.9 2 Sudoeste 7 Oeste 0 -- -- 73
2017-09-07 02:00:00 10.3 3 Sudoeste 5 Sudoeste 0 -- -- 89
2017-09-07 01:00:00 10.4 5 Sudoeste 10 Oeste 0 -- -- 89
2017-09-07 00:00:00 11.1 3 Oeste 6 Oeste 0 -- -- 87
2017-09-06 23:00:00 11.8 5 Oeste 10 Noroeste 0 -- -- 86
2017-09-06 22:00:00 13 7 Oeste 14 Noroeste 0 -- -- 83
2017-09-06 21:00:00 14.4 10 Noroeste 21 Noroeste 0 -- -- 79
2017-09-06 20:00:00 16.8 12 Norte 19 Norte 0 -- -- 71
2017-09-06 19:00:00 18.9 12 Norte 24 Norte 0 -- -- 65
2017-09-06 18:00:00 20.3 18 Norte 27 Norte 0 -- -- 59
2017-09-06 17:00:00 20.8 16 Norte 29 Norte 0 -- -- 59
2017-09-06 16:00:00 21.7 17 Norte 28 Norte 0 -- -- 56
2017-09-06 15:00:00 22 14 Norte 28 Norte 0 -- -- 54
2017-09-06 14:00:00 22.1 12 Norte 22 Noroeste 0 -- -- 54
2017-09-06 13:00:00 21.1 14 Norte 21 Noroeste 0 -- -- 55
2017-09-06 12:00:00 21 10 Norte 21 Norte 0 -- -- 52
2017-09-06 11:00:00 18.4 13 Norte 24 Noroeste 0 -- -- 61
2017-09-06 10:00:00 16.3 15 Noroeste 23 Noroeste 0 -- -- 70
2017-09-06 09:00:00 13.7 12 Noroeste 26 Noroeste 0 -- -- 81
2017-09-06 08:00:00 12.6 6 Noroeste 17 Noroeste 0 -- -- 89
2017-09-06 07:00:00 12.5 8 Noroeste 13 Noroeste 0 -- -- 92
2017-09-06 06:00:00 12.8 5 Noroeste 8 Noroeste 0 -- -- 90
2017-09-06 05:00:00 13.5 0 Calma 8 Noroeste 0 -- -- 87
2017-09-06 04:00:00 13.5 3 Oeste 8 Noroeste 0 -- -- 87
2017-09-06 03:00:00 13.8 6 Noroeste 12 Norte 0 -- -- 87
2017-09-06 02:00:00 14.8 10 Noroeste 15 Noroeste 0 -- -- 84
2017-09-06 01:00:00 15.6 8 Oeste 15 Noroeste 0 -- -- 85
2017-09-06 00:00:00 17.8 2 Nordeste 6 Sudoeste 0 -- -- 67
2017-09-05 23:00:00 18.4 4 Sudeste 11 Sur 0 -- -- 68
2017-09-05 22:00:00 18.8 0 Calma 5 Sur 0 -- -- 67
2017-09-05 21:00:00 20.1 4 Sudeste 16 Este 0 -- -- 64
2017-09-05 20:00:00 22.2 10 Nordeste 19 Nordeste 0 -- -- 57
2017-09-05 19:00:00 24.3 10 Nordeste 21 Nordeste 0 -- -- 50
2017-09-05 18:00:00 25.2 11 Este 21 Norte 0 -- -- 49
2017-09-05 17:00:00 26.6 6 Norte 18 Noroeste 0 -- -- 41
2017-09-05 16:00:00 26.3 4 Oeste 23 Norte 0 -- -- 43
2017-09-05 15:00:00 25.7 10 Norte -- -- -- -- -- 47
2017-09-05 14:00:00 -- 8 Noroeste 19 Norte -- -- -- --
2017-09-05 13:00:00 22.9 10 Noroeste 21 Noroeste 0 -- -- 53
2017-09-05 12:00:00 22.4 12 Norte 22 Norte 0 -- -- 58
2017-09-05 11:00:00 21.5 10 Norte 17 Norte 0 -- -- 61
2017-09-05 10:00:00 20.4 9 Sur 14 Sur 0 -- -- 69
2017-09-05 09:00:00 17.8 4 Sur 10 Sudoeste 0 -- -- 80
2017-09-05 08:00:00 13.9 6 Sudoeste 11 Sudoeste 0 -- -- 93
2017-09-05 07:00:00 13.3 11 Sudoeste 21 Sudoeste 0 -- -- 92
2017-09-05 06:00:00 14 16 Sudoeste 23 Sudoeste 0 -- -- 90
2017-09-05 05:00:00 14 5 Este 26 Sudoeste 0 -- -- 90
2017-09-05 04:00:00 14.2 19 Sudoeste 24 Sudoeste 0 -- -- 87
2017-09-05 03:00:00 13.5 11 Sudoeste 14 Sudoeste 0 -- -- 82
2017-09-05 02:00:00 15.1 2 Sudoeste 8 Sudeste 0 -- -- 75
2017-09-05 01:00:00 14.6 6 Sur 9 Sudeste 0 -- -- 77
2017-09-05 00:00:00 15.2 4 Sur 8 Sur 0 -- -- 74
2017-09-04 23:00:00 15.8 4 Sur 6 Sur 0 -- -- 71
2017-09-04 22:00:00 16.5 3 Sur 5 Sur 0 -- -- 68
2017-09-04 21:00:00 18 4 Sudeste 15 Este 0 -- -- 62
2017-09-04 20:00:00 19.6 11 Nordeste 20 Este 0 -- -- 58
2017-09-04 19:00:00 21.6 9 Este 23 Nordeste 0 -- -- 50
2017-09-04 18:00:00 21.9 13 Nordeste 23 Nordeste 0 -- -- 51
2017-09-04 17:00:00 21.8 11 Norte 26 Este 0 -- -- 50
2017-09-04 16:00:00 21.1 11 Norte 29 Nordeste 0 -- -- 51
2017-09-04 15:00:00 21.9 10 Norte 27 Norte 0 -- -- 52
2017-09-04 14:00:00 21.1 10 Norte 26 Noroeste 0 -- -- 52
2017-09-04 13:00:00 20.9 11 Norte 22 Norte 0 -- -- 52
2017-09-04 12:00:00 20.1 12 Noroeste 23 Noroeste 0 -- -- 54
2017-09-04 11:00:00 18.4 15 Noroeste 38 Noroeste 0 -- -- 56
2017-09-04 10:00:00 17.1 27 Noroeste 36 Oeste 0 -- -- 58
2017-09-04 09:00:00 16.4 21 Noroeste 34 Noroeste 0 -- -- 58
2017-09-04 08:00:00 14.8 14 Oeste 27 Noroeste 0 -- -- 60
2017-09-04 07:00:00 15.2 14 Oeste 30 Oeste 0 -- -- 56
2017-09-04 06:00:00 16.2 17 Oeste 29 Oeste 0 -- -- 49
2017-09-04 05:00:00 16.2 17 Sudoeste 24 Sudoeste 0 -- -- 46
2017-09-04 04:00:00 15.6 19 Sudoeste 27 Sudoeste 0 -- -- 50
2017-09-04 03:00:00 14.6 23 Sudoeste 26 Sudoeste 0 -- -- 58
2017-09-04 02:00:00 16 20 Sur 28 Sur 0 -- -- 51
2017-09-04 01:00:00 15.3 2 Nordeste 15 Sudeste 0 -- -- 55
2017-09-04 00:00:00 16.2 7 Sur 12 Sur 0 -- -- 51
2017-09-03 23:00:00 15.7 6 Sur 9 Este 0 -- -- 56
2017-09-03 22:00:00 17.9 3 Sudeste 9 Sudeste 0 -- -- 51
2017-09-03 21:00:00 18.4 4 Sur 7 Sudeste 0 -- -- 49
2017-09-03 20:00:00 20.6 5 Sudeste 15 Nordeste 0 -- -- 42
2017-09-03 19:00:00 23 9 Este 23 Noroeste 0 -- -- 36
2017-09-03 18:00:00 24.9 13 Noroeste 32 Noroeste 0 -- -- 31
2017-09-03 17:00:00 24.8 19 Noroeste 37 Noroeste 0 -- -- 30
2017-09-03 16:00:00 24.3 21 Noroeste 35 Noroeste 0 -- -- 29
2017-09-03 15:00:00 23.8 19 Noroeste 34 Noroeste 0 -- -- 28
2017-09-03 14:00:00 21.6 18 Noroeste 33 Noroeste 0 -- -- 32
2017-09-03 13:00:00 22.2 18 Noroeste 36 Noroeste 0 -- -- 31
2017-09-03 12:00:00 20.4 16 Oeste 30 Oeste 0 -- -- 34
2017-09-03 11:00:00 17.6 18 Sudoeste 25 Sudoeste 0 -- -- 40
2017-09-03 10:00:00 17 14 Sudoeste 22 Sudoeste 0 -- -- 41
2017-09-03 09:00:00 15.5 12 Sudoeste 22 Sudoeste 0 -- -- 45
2017-09-03 08:00:00 13.1 3 Oeste 13 Oeste 0 -- -- 50
2017-09-03 07:00:00 13.3 0 Calma 6 Noroeste 0 -- -- 48
2017-09-03 06:00:00 12.8 5 Sudoeste 9 Oeste 0 -- -- 52
2017-09-03 05:00:00 13.1 0 Calma 20 Sudoeste 0 -- -- 50
2017-09-03 04:00:00 13.1 14 Sudoeste 23 Sudoeste 0 -- -- 53
2017-09-03 03:00:00 14.5 17 Sudoeste 26 Sudoeste 0 -- -- 49
2017-09-03 02:00:00 14 16 Sudoeste 26 Sudoeste 0 -- -- 52
2017-09-03 01:00:00 14.9 15 Sudoeste 21 Sudoeste 0 -- -- 45
2017-09-03 00:00:00 14.9 8 Oeste 17 Oeste 0 -- -- 40
2017-09-02 23:00:00 13.9 0 Calma 3 Sudoeste 0 -- -- 49
2017-09-02 22:00:00 13 0 Calma 14 Oeste 0 -- -- 52
2017-09-02 21:00:00 13.5 4 Norte 13 Sudoeste 0 -- -- 57
2017-09-02 20:00:00 16.6 7 Oeste 15 Noroeste 0 -- -- 52
2017-09-02 19:00:00 18.4 12 Noroeste 21 Noroeste 0 -- -- 46
2017-09-02 18:00:00 19.8 10 Noroeste 22 Noroeste 0 -- -- 43
2017-09-02 17:00:00 19.5 10 Norte 24 Noroeste 0 -- -- 45
2017-09-02 16:00:00 18.9 13 Noroeste 27 Noroeste 0 -- -- 44
2017-09-02 15:00:00 17.7 15 Norte 29 Norte 0 -- -- 47
2017-09-02 14:00:00 17 17 Norte 32 Noroeste 0 -- -- 44
2017-09-02 13:00:00 15.4 19 Norte 31 Norte 0 -- -- 51
2017-09-02 12:00:00 14.1 13 Norte 30 Noroeste 0 -- -- 56
2017-09-02 11:00:00 13.1 16 Noroeste 31 Norte 0 -- -- 60
2017-09-02 10:00:00 11.4 16 Noroeste 29 Noroeste 0 -- -- 72
2017-09-02 09:00:00 9.3 18 Noroeste 26 Noroeste 0 -- -- 80
2017-09-02 08:00:00 7.4 12 Noroeste 26 Noroeste 0 -- -- 85
2017-09-02 07:00:00 6.6 19 Noroeste 28 Noroeste 0 -- -- 87
2017-09-02 06:00:00 6.7 12 Noroeste 22 Noroeste 0 -- -- 90
2017-09-02 05:00:00 6.8 8 Oeste 13 Noroeste 0 -- -- 91
2017-09-02 04:00:00 7.5 5 Noroeste 27 Noroeste 0 -- -- 90
2017-09-02 03:00:00 8.5 18 Noroeste 30 Norte 0 -- -- 89
2017-09-02 02:00:00 8.4 14 Norte 30 Norte 0 -- -- 89
2017-09-02 01:00:00 8.9 23 Norte 32 Norte 0 -- -- 87
2017-09-02 00:00:00 9.5 20 Norte 34 Norte 0 -- -- 84
2017-09-01 23:00:00 10.1 18 Norte 30 Norte 0 -- -- 80
2017-09-01 22:00:00 10.9 18 Norte 36 Norte 0 -- -- 75
2017-09-01 21:00:00 12.4 18 Norte 33 Norte 0 -- -- 66
2017-09-01 20:00:00 13.8 18 Norte 30 Norte 0 -- -- 60
2017-09-01 19:00:00 15.7 14 Norte 26 Norte 0 -- -- 60
2017-09-01 18:00:00 17.1 14 Nordeste 26 Norte 0 -- -- 57
2017-09-01 17:00:00 18 13 Norte 25 Nordeste 0 -- -- 54
2017-09-01 16:00:00 18 14 Norte 30 Nordeste 0 -- -- 52
2017-09-01 15:00:00 18.2 13 Norte 21 Norte 0 -- -- 51
2017-09-01 14:00:00 17.2 12 Norte 22 Norte 0 -- -- 54
2017-09-01 13:00:00 16.1 7 Norte 17 Norte 0 -- -- 56
2017-09-01 12:00:00 15 11 Norte 19 Norte 0 -- -- 56
2017-09-01 11:00:00 13.2 5 Norte 9 Nordeste 0 -- -- 57
2017-09-01 10:00:00 10.9 6 Noroeste 9 Norte 0 -- -- 70
2017-09-01 09:00:00 9.5 5 Noroeste 20 Oeste 0 -- -- 80
2017-09-01 08:00:00 10.3 8 Noroeste 20 Noroeste 0 -- -- 69
2017-09-01 07:00:00 10.1 10 Noroeste 17 Noroeste 0 -- -- 75
2017-09-01 06:00:00 10.1 12 Noroeste 18 Noroeste 0 -- -- 74
2017-09-01 05:00:00 10.5 10 Noroeste 22 Noroeste 0 -- -- 73
2017-09-01 04:00:00 10.5 10 Noroeste 18 Noroeste 0 -- -- 74
2017-09-01 03:00:00 9.9 10 Noroeste 19 Noroeste 0 -- -- 83
2017-09-01 02:00:00 10.2 10 Noroeste 15 Noroeste 0 -- -- 87
2017-09-01 01:00:00 10.3 7 Oeste 13 Noroeste 0 -- -- 86
2017-09-01 00:00:00 11 7 Oeste 13 Noroeste 0 -- -- 84
2017-08-31 23:00:00 12.4 3 Sudoeste 13 Este 0 -- -- 80
2017-08-31 22:00:00 13 3 Norte 15 Nordeste 0 -- -- 79
2017-08-31 21:00:00 14.1 8 Nordeste 18 Nordeste 0 -- -- 78
2017-08-31 20:00:00 15.5 12 Nordeste 25 Nordeste 0 -- -- 72
2017-08-31 19:00:00 17.1 13 Nordeste 22 Nordeste 0 -- -- 67
2017-08-31 18:00:00 18.9 11 Este 24 Nordeste 0 -- -- 62
2017-08-31 17:00:00 18.7 13 Nordeste 24 Nordeste 0 -- -- 61
2017-08-31 16:00:00 19 15 Nordeste 24 Nordeste 0 -- -- 60
2017-08-31 15:00:00 19.8 10 Nordeste 19 Nordeste 0 -- -- 58
2017-08-31 14:00:00 18.4 8 Noroeste 17 Noroeste 0 -- -- 63
2017-08-31 13:00:00 16.6 5 Norte 18 Noroeste 0 -- -- 71
2017-08-31 12:00:00 16.5 11 Norte 17 Noroeste 0 -- -- 73
2017-08-31 11:00:00 14.4 4 Norte 16 Norte 0 -- -- 81
2017-08-31 10:00:00 13.9 10 Norte 16 Noroeste 0 -- -- 80
2017-08-31 09:00:00 12.7 7 Noroeste 12 Norte 0 -- -- 90
2017-08-31 08:00:00 10.7 8 Noroeste 16 Noroeste 0 -- -- 97
2017-08-31 07:00:00 11 7 Noroeste 18 Noroeste 0 -- -- 98
2017-08-31 06:00:00 11.3 10 Noroeste 21 Norte 0 -- -- 98
2017-08-31 05:00:00 11.5 14 Norte 21 Norte 0 -- -- 98
2017-08-31 04:00:00 11.9 12 Norte 21 Norte 0 -- -- 98
2017-08-31 03:00:00 12.1 14 Norte 27 Norte 0 -- -- 97
2017-08-31 02:00:00 12.9 16 Norte 26 Norte 0 -- -- 95
2017-08-31 01:00:00 14.5 4 Noroeste 11 Noroeste 0 -- -- 75
2017-08-31 00:00:00 15.5 8 Oeste 17 Noroeste 0 -- -- 73
2017-08-30 23:00:00 16.8 9 Oeste 22 Oeste 0 -- -- 75
2017-08-30 22:00:00 15.9 4 Sudeste 13 Sudoeste 0 -- -- 86
2017-08-30 21:00:00 16.3 5 Sudeste 16 Este 0 -- -- 86
2017-08-30 20:00:00 18.9 9 Este 14 Sudeste 0 -- -- 72
2017-08-30 19:00:00 21.5 9 Noroeste 17 Oeste 0 -- -- 52
2017-08-30 18:00:00 19.2 13 Oeste 30 Noroeste 0 -- -- 63
2017-08-30 17:00:00 19.3 14 Noroeste 33 Noroeste 0 -- -- 63
2017-08-30 16:00:00 23.7 8 Sudoeste 19 Sudoeste 0 -- -- 49
2017-08-30 15:00:00 22.7 11 Sudoeste 33 Oeste 0 -- -- 52
2017-08-30 14:00:00 23 8 Oeste 20 Sudoeste 0 -- -- 54
2017-08-30 13:00:00 21.4 7 Sudoeste 19 Sudoeste 0 -- -- 61
2017-08-30 12:00:00 20.4 15 Sudoeste 26 Sudoeste 0 -- -- 63
2017-08-30 11:00:00 18.2 13 Sudoeste 26 Sudoeste 0 -- -- 73
2017-08-30 10:00:00 17.7 19 Sudoeste 31 Sudoeste 0 -- -- 75
2017-08-30 09:00:00 13.9 21 Sudoeste 31 Sudoeste 0 -- -- 90
2017-08-30 08:00:00 13.1 21 Sudoeste 31 Sudoeste 0 -- -- 92
2017-08-30 07:00:00 13.1 24 Sudoeste 31 Sur 0 -- -- 92
2017-08-30 06:00:00 13.1 6 Oeste 41 Sudoeste 0 -- -- 91
2017-08-30 05:00:00 13.2 29 Sur 46 Sudoeste 0 -- -- 90
2017-08-30 04:00:00 14 28 Sudoeste 40 Sudoeste 0 -- -- 85
2017-08-30 03:00:00 13.9 26 Sudoeste 42 Sur 0.2 -- -- 88
2017-08-30 02:00:00 15.1 28 Sur 40 Sur 0 -- -- 79
2017-08-30 01:00:00 14.8 12 Sudoeste 24 Sur 0 -- -- 78
2017-08-30 00:00:00 14.2 11 Sudoeste 25 Sudoeste 0 -- -- 79
2017-08-29 23:00:00 14.2 14 Sur 31 Sudoeste 0 -- -- 77
2017-08-29 22:00:00 14.8 18 Sur 44 Sudoeste 0 -- -- 72
2017-08-29 21:00:00 15 19 Sur 43 Sur 0 -- -- 71
2017-08-29 20:00:00 16.2 24 Sur 44 Sudoeste 0 -- -- 67
2017-08-29 19:00:00 16.9 14 Sudoeste 44 Sur 0 -- -- 67
2017-08-29 18:00:00 17.9 26 Sur 55 Sudeste 0 -- -- 71
2017-08-29 17:00:00 19.4 15 Sur 34 Sudeste 0 -- -- 73
2017-08-29 16:00:00 19.5 17 Sudeste 32 Sudeste 0 -- -- 81
2017-08-29 15:00:00 20.2 18 Este 29 Este 0 -- -- 77
2017-08-29 14:00:00 21.3 10 Sudeste 33 Sur 0 -- -- 71
2017-08-29 13:00:00 21.9 9 Sur 29 Sur 0 -- -- 64
2017-08-29 12:00:00 20.6 11 Sudeste 29 Sur 0 -- -- 71
2017-08-29 11:00:00 19.5 12 Sur 22 Sur 0 -- -- 77
2017-08-29 10:00:00 18.5 10 Sudoeste 18 Sudoeste 0 -- -- 81
2017-08-29 09:00:00 17 5 Sur 16 Sudoeste 0 -- -- 88
2017-08-29 08:00:00 13.5 11 Sur 19 Sur 0.2 -- -- 95
2017-08-29 07:00:00 13.5 11 Sur 28 Sur 1.8 -- -- 96
2017-08-29 06:00:00 12.2 2 Sudoeste 8 Sudeste 0 -- -- 97
2017-08-29 05:00:00 12.3 4 Sur 8 Sur 0 -- -- 97
2017-08-29 04:00:00 12.4 3 Sudeste 9 Sudoeste 0 -- -- 94
2017-08-29 03:00:00 12.7 5 Sudoeste 6 Sudoeste 0 -- -- 94
2017-08-29 02:00:00 12.8 3 Sur 9 Sur 0 -- -- 96
2017-08-29 01:00:00 12.2 6 Sur 10 Norte 0 -- -- 96
2017-08-29 00:00:00 12.5 9 Norte 31 Oeste 0 -- -- 95
2017-08-28 23:00:00 13 19 Noroeste 45 Oeste 2.2 -- -- 95
2017-08-28 22:00:00 14.6 23 Oeste 39 Oeste 0.6 -- -- 91
2017-08-28 21:00:00 16 15 Oeste 33 Oeste 0.6 -- -- 89
2017-08-28 20:00:00 18.4 13 Sudoeste 22 Sur 0 -- -- 86
2017-08-28 19:00:00 19.6 9 Sur 13 Sur 0 -- -- 77
2017-08-28 18:00:00 18.5 0 Calma 13 Noroeste 0 -- -- 84
2017-08-28 17:00:00 18.4 6 Norte 13 Este -- -- -- 84
2017-08-28 16:00:00 17.3 10 Noroeste 50 Sur 9.4 -- -- 87
2017-08-28 15:00:00 25.3 11 Este 32 Este 0 -- -- 47
2017-08-28 14:00:00 26.4 17 Este 26 Este 0 -- -- 44
2017-08-28 13:00:00 26.2 14 Este 21 Este 0 -- -- 46
2017-08-28 12:00:00 25.4 10 Este 17 Este 0 -- -- 48
2017-08-28 11:00:00 24.7 8 Este 15 Este 0 -- -- 50
2017-08-28 10:00:00 23.8 10 Sur 24 Sur 0 -- -- 49
2017-08-28 09:00:00 19.5 15 Sudoeste 25 Sudoeste 0 -- -- 66
2017-08-28 08:00:00 17.1 13 Sudoeste 23 Sur 0 -- -- 73
2017-08-28 07:00:00 16.2 17 Sudoeste 21 Sudoeste 0 -- -- 78
2017-08-28 06:00:00 15.5 17 Sudoeste 19 Sudoeste 0 -- -- 75
2017-08-28 05:00:00 17.4 10 Sur 16 Sur 0 -- -- 65
2017-08-28 04:00:00 16.6 10 Sur 18 Sudeste 0 -- -- 68
2017-08-28 03:00:00 18 14 Sur 18 Sur 0 -- -- 61
2017-08-28 02:00:00 17.3 16 Sur 21 Sur 0 -- -- 62
2017-08-28 01:00:00 18.5 15 Sur 24 Sudoeste 0 -- -- 56
2017-08-28 00:00:00 17.8 19 Sur 30 Sur 0 -- -- 62
2017-08-27 23:00:00 16.6 23 Sur 37 Sur 0.2 -- -- 73
2017-08-27 22:00:00 16.6 30 Sur 39 Sur 0 -- -- 75
2017-08-27 21:00:00 16.3 10 Sur 21 Sudoeste 0 -- -- 75
2017-08-27 20:00:00 16.1 15 Sur 22 Sudoeste 0.4 -- -- 82
2017-08-27 19:00:00 15.7 18 Oeste 45 Oeste 0.6 -- -- 86
2017-08-27 18:00:00 20 14 Oeste 29 Oeste 0 -- -- 67
2017-08-27 17:00:00 19.9 16 Oeste 26 Oeste 0.2 -- -- 67
2017-08-27 16:00:00 19.6 13 Noroeste 33 Oeste 0 -- -- 73
2017-08-27 15:00:00 19.1 14 Noroeste 48 Oeste 1.2 -- -- 80
2017-08-27 14:00:00 24.7 8 Sudeste 18 Este 0 -- -- 52
2017-08-27 13:00:00 24.8 8 Este 18 Este 0 -- -- 53
2017-08-27 12:00:00 22.2 7 Sudeste 26 Oeste 0 -- -- 59
2017-08-27 11:00:00 20.8 12 Sudoeste 27 Oeste 0.2 -- -- 61
2017-08-27 10:00:00 22 13 Sur 18 Sur 0 -- -- 60
2017-08-27 09:00:00 17 18 Sudoeste 28 Sur 0.6 -- -- 84
2017-08-27 08:00:00 17.8 15 Sur 20 Sur 0 -- -- 76
2017-08-27 07:00:00 18.1 13 Sur 17 Sur 0 -- -- 78
2017-08-27 06:00:00 17.3 5 Sudeste 19 Sur 0 -- -- 85
2017-08-27 05:00:00 17 15 Sudoeste 23 Sudoeste 0 -- -- 89
2017-08-27 04:00:00 16.1 10 Sudoeste 32 Sur 0.4 -- -- 85
2017-08-27 03:00:00 15.8 25 Sudoeste 41 Sudoeste 1.4 -- -- 90
2017-08-27 02:00:00 16.8 17 Sudoeste 29 Sudoeste 0 -- -- 78
2017-08-27 01:00:00 17.1 18 Sudoeste 26 Sudoeste 0 -- -- 81
2017-08-27 00:00:00 17.7 20 Sur 32 Sur 0 -- -- 76
2017-08-26 23:00:00 16.7 26 Sur 37 Sudeste 0 -- -- 81
2017-08-26 22:00:00 16.1 13 Sur 42 Sudeste 2.4 -- -- 84
2017-08-26 21:00:00 16.8 15 Sur 40 Sur 0.4 -- -- 82
2017-08-26 20:00:00 18.6 13 Este 33 Sudeste 0 -- -- 76
2017-08-26 19:00:00 23.4 8 Sudoeste 22 Sudeste 0 -- -- 71
2017-08-26 18:00:00 18 14 Sudeste 37 Sur 4.6 -- -- 77
2017-08-26 17:00:00 21.4 21 Norte 30 Norte 5.2 -- -- 66
2017-08-26 16:00:00 26.3 22 Nordeste 33 Noroeste 0 -- -- 49
2017-08-26 15:00:00 32 15 Sudoeste 33 Sudoeste 0 -- -- 24
2017-08-26 14:00:00 31.1 11 Oeste 33 Sudoeste 0 -- -- 27
2017-08-26 13:00:00 31 14 Sudoeste 28 Sudoeste 0 -- -- 28
2017-08-26 12:00:00 28.5 14 Sur 34 Sur 0 -- -- 33
2017-08-26 11:00:00 27 16 Sur 31 Sur 0 -- -- 37
2017-08-26 10:00:00 24.2 19 Sur 27 Sudoeste 0 -- -- 45
2017-08-26 09:00:00 19.3 15 Sudoeste 28 Sur 0 -- -- 58
2017-08-26 08:00:00 18.9 17 Sur 23 Sudoeste 0 -- -- 58
2017-08-26 07:00:00 18.7 14 Sur 20 Sur 0 -- -- 60
2017-08-26 06:00:00 18.8 9 Sudoeste 15 Sudoeste 0 -- -- 59
2017-08-26 05:00:00 19.4 6 Sudoeste 21 Sur 0 -- -- 55
2017-08-26 04:00:00 21 12 Sur 23 Sur 0 -- -- 46
2017-08-26 03:00:00 19.9 7 Sur 16 Sudoeste 0 -- -- 49
2017-08-26 02:00:00 19.8 9 Sudoeste 22 Sur 0 -- -- 51
2017-08-26 01:00:00 21 14 Sudoeste 24 Sur 0 -- -- 45
2017-08-26 00:00:00 21.4 15 Sur 33 Sur 0 -- -- 44
2017-08-25 23:00:00 20.5 17 Sur 36 Sur 0 -- -- 48
2017-08-25 22:00:00 20.7 27 Sur 52 Sur 0 -- -- 51
2017-08-25 21:00:00 22.5 32 Sur 51 Sur 0 -- -- 58
2017-08-25 20:00:00 25.7 7 Oeste 35 Oeste 0 -- -- 31
2017-08-25 19:00:00 26.9 19 Noroeste 43 Oeste 0.2 -- -- 30
2017-08-25 18:00:00 25.6 14 Oeste 44 Sur 0.6 -- -- 35
2017-08-25 17:00:00 28.3 18 Sur 38 Sur 2.2 -- -- 34
2017-08-25 16:00:00 32.7 21 Sudoeste 44 Sudoeste 0 -- -- 23
2017-08-25 15:00:00 31.7 26 Sur 44 Sur 0 -- -- 23
2017-08-25 14:00:00 29.2 25 Sur 39 Sudoeste 0 -- -- 28
2017-08-25 13:00:00 31.1 14 Sudeste 28 Sur 0 -- -- 26
2017-08-25 12:00:00 29.1 13 Sur 23 Sur 0 -- -- 30
2017-08-25 11:00:00 27.4 8 Sur 23 Sudoeste 0 -- -- 33
2017-08-25 10:00:00 25.5 16 Sudoeste 25 Sudoeste 0 -- -- 38
2017-08-25 09:00:00 22.9 21 Sudoeste 26 Sudoeste 0 -- -- 44
2017-08-25 08:00:00 19.3 22 Sudoeste 26 Sudoeste 0 -- -- 52
2017-08-25 07:00:00 18.4 24 Sudoeste 27 Sudoeste 0 -- -- 56
2017-08-25 06:00:00 19.2 22 Sudoeste 26 Sudoeste 0 -- -- 57
2017-08-25 05:00:00 18 22 Sudoeste 28 Sudoeste 0 -- -- 67
2017-08-25 04:00:00 18.3 23 Sudoeste 26 Sudoeste 0 -- -- 69
2017-08-25 03:00:00 19.4 17 Sudoeste 24 Sur 0 -- -- 67
2017-08-25 02:00:00 20 16 Sudoeste 24 Sur 0 -- -- 65
2017-08-25 01:00:00 21 11 Sudoeste 16 Sudoeste 0 -- -- 60
2017-08-25 00:00:00 22.3 9 Sudoeste 34 Sur 0 -- -- 58
2017-08-24 23:00:00 22.8 13 Sur 26 Sur 0 -- -- 56
2017-08-24 22:00:00 22.8 15 Sur 22 Sur 0 -- -- 55
2017-08-24 21:00:00 24.2 4 Este 20 Nordeste 0 -- -- 54
2017-08-24 20:00:00 27.1 7 Este 33 Este 0 -- -- 47
2017-08-24 19:00:00 27.8 15 Este 30 Nordeste 0 -- -- 42
2017-08-24 18:00:00 28.2 21 Este 33 Este 0 -- -- 41
2017-08-24 17:00:00 29.2 21 Este 36 Sudeste 0 -- -- 42
2017-08-24 16:00:00 30.1 13 Nordeste 36 Nordeste 0 -- -- 39
2017-08-24 15:00:00 31.1 13 Sur 31 Sur 0 -- -- 27
2017-08-24 14:00:00 31.4 9 Sur 23 Sur 0 -- -- 24
2017-08-24 13:00:00 30.1 12 Sudoeste 23 Sudoeste 0 -- -- 29
2017-08-24 12:00:00 28.7 15 Sur 27 Sur 0 -- -- 33
2017-08-24 11:00:00 26.2 21 Sudoeste 37 Sur 0 -- -- 37
2017-08-24 10:00:00 23.7 29 Sudoeste 37 Sudoeste 0 -- -- 40
2017-08-24 09:00:00 21 32 Sudoeste 39 Sudoeste 0 -- -- 47
2017-08-24 08:00:00 18.2 30 Sudoeste 34 Sudoeste 0 -- -- 60
2017-08-24 07:00:00 18.1 25 Sudoeste 33 Sur 0 -- -- 69
2017-08-24 06:00:00 16.5 10 Sudeste 21 Sur 0 -- -- 94
2017-08-24 05:00:00 16.5 13 Sudeste 26 Este 0 -- -- 96
2017-08-24 04:00:00 16.1 12 Sudeste 19 Sudeste 0 -- -- 95
2017-08-24 03:00:00 17.1 12 Este 32 Nordeste 0 -- -- 92
2017-08-24 02:00:00 18.4 15 Norte 36 Norte 0 -- -- 88
2017-08-24 01:00:00 20.5 10 Nordeste 30 Sur 0 -- -- 71
2017-08-24 00:00:00 20.8 19 Sur 25 Sur 0 -- -- 64
2017-08-23 23:00:00 21.6 10 Sur 24 Sur 0 -- -- 64
2017-08-23 22:00:00 22 16 Sur 29 Sur 0 -- -- 59
2017-08-23 21:00:00 22.1 23 Sur 36 Sur 0 -- -- 56
2017-08-23 20:00:00 23.4 24 Sur 33 Sur 0 -- -- 46
2017-08-23 19:00:00 25.5 23 Sur 39 Sur 0 -- -- 45
2017-08-23 18:00:00 23.4 26 Sur 37 Sur 0 -- -- 51
2017-08-23 17:00:00 26.9 18 Sudeste 35 Sudeste 0 -- -- 36
2017-08-23 16:00:00 26.9 17 Este 26 Sudeste 0 -- -- 46
2017-08-23 15:00:00 27.1 16 Sudeste 27 Sudeste 0 -- -- 43
2017-08-23 14:00:00 24.6 13 Este 19 Nordeste 12.6 -- -- 52
2017-08-23 13:00:00 28 12 Este 22 Este 0 -- -- 42
2017-08-23 12:00:00 26.4 9 Este 19 Este 0 -- -- 49
2017-08-23 11:00:00 25.7 10 Este 15 Este 0 -- -- 50
2017-08-23 10:00:00 23.4 9 Sudeste 14 Este 0 -- -- 58
2017-08-23 09:00:00 21.2 4 Este 12 Sur 0 -- -- 66
2017-08-23 08:00:00 17.1 7 Este 12 Sudeste 0 -- -- 76
2017-08-23 07:00:00 16.4 2 Sur 8 Sudoeste 0 -- -- 78
2017-08-23 06:00:00 16.6 3 Sur 6 Sudoeste 0 -- -- 78
2017-08-23 05:00:00 17.8 3 Oeste 6 Oeste 0 -- -- 73
2017-08-23 04:00:00 17.9 0 Calma 13 Sudoeste 0 -- -- 74
2017-08-23 03:00:00 18.6 9 Sur 12 Sur 0 -- -- 72
2017-08-23 02:00:00 19.3 5 Sudeste 18 Sur 0 -- -- 72
2017-08-23 01:00:00 18.8 4 Sudeste 17 Sudeste 0 -- -- 77
2017-08-23 00:00:00 19.3 11 Sur 20 Sudeste 0 -- -- 76
2017-08-22 23:00:00 21.3 10 Sudeste 24 Nordeste 0.8 -- -- 71
2017-08-22 22:00:00 24.5 8 Sur 19 Sudeste 0 -- -- 48
2017-08-22 21:00:00 25.4 9 Sudeste 23 Sudeste 0 -- -- 43
2017-08-22 20:00:00 27.6 16 Sudeste 28 Este 0 -- -- 40
2017-08-22 19:00:00 28.5 18 Este 28 Este 0 -- -- 40
2017-08-22 18:00:00 29.1 13 Este 27 Sudeste 0 -- -- 39
2017-08-22 17:00:00 29.8 15 Nordeste 28 Nordeste 0 -- -- 39
2017-08-22 16:00:00 31.3 13 Nordeste 26 Nordeste 0 -- -- 38
2017-08-22 15:00:00 32.1 7 Nordeste 19 Noroeste 0 -- -- 31
2017-08-22 14:00:00 31.8 6 Noroeste 17 Norte 0 -- -- 33
2017-08-22 13:00:00 31.4 5 Oeste 17 Noroeste 0 -- -- 33
2017-08-22 12:00:00 29.1 8 Norte 19 Norte 0 -- -- 38
2017-08-22 11:00:00 28.4 8 Norte 17 Sudoeste 0 -- -- 41
2017-08-22 10:00:00 26.4 10 Sudoeste 27 Sudoeste 0 -- -- 51
2017-08-22 09:00:00 23.4 19 Sudoeste 27 Sudoeste 0 -- -- 59
2017-08-22 08:00:00 19.2 14 Sudoeste 23 Sudoeste 0 -- -- 70
2017-08-22 07:00:00 18.4 4 Sudeste 27 Sudoeste 0 -- -- 72
2017-08-22 06:00:00 18.4 19 Sudoeste 32 Sudoeste 0 -- -- 73
2017-08-22 05:00:00 18.9 29 Sudoeste 34 Sudoeste 0 -- -- 68
2017-08-22 04:00:00 19 19 Sudoeste 27 Sudoeste 0 -- -- 68
2017-08-22 03:00:00 19.6 11 Sur 21 Sudoeste 0 -- -- 70
2017-08-22 02:00:00 19.8 16 Sudoeste 31 Sur 0 -- -- 72
2017-08-22 01:00:00 21.4 26 Sur 33 Sur 0 -- -- 68
2017-08-22 00:00:00 21.2 18 Sur 26 Sur 0 -- -- 66